Terminal Aerodrome Forecast
Issued by NWS Wakefield, VA

Current Version | Previous Version | Text Only | Print | Product List | Glossary On
Versions: 1 2 3 4 5 6 7 8 9 10 11 12 13 14 15
000
FTUS41 KAKQ 261100
TAFRIC
TAF
KRIC 261131Z 2612/2712 VRB02KT P6SM SKC
     FM261600 20005KT P6SM SKC
     FM262200 20002KT P6SM BKN250=

USA.gov is the U.S. government's official web portal to all federal, state and local government web resources and services.